sensor_id;sensor_type;location;lat;lon;timestamp;P1;durP1;ratioP1;P2;durP2;ratioP2
8450;SDS011;4262;50.980;13.892;2023-04-24T03:31:33;17.07;;;8.10;;
8450;SDS011;4262;50.980;13.892;2023-04-24T03:34:00;18.90;;;7.80;;
8450;SDS011;4262;50.980;13.892;2023-04-24T03:36:28;15.90;;;8.30;;
8450;SDS011;4262;50.980;13.892;2023-04-24T03:38:57;15.30;;;8.33;;
8450;SDS011;4262;50.980;13.892;2023-04-24T03:41:27;18.77;;;8.80;;
8450;SDS011;4262;50.980;13.892;2023-04-24T03:44:05;15.43;;;8.60;;
8450;SDS011;4262;50.980;13.892;2023-04-24T03:46:33;15.63;;;8.27;;
8450;SDS011;4262;50.980;13.892;2023-04-24T03:49:01;16.47;;;9.10;;
8450;SDS011;4262;50.980;13.892;2023-04-24T03:51:33;18.13;;;8.63;;
8450;SDS011;4262;50.980;13.892;2023-04-24T03:54:14;16.80;;;9.00;;
8450;SDS011;4262;50.980;13.892;2023-04-24T03:56:41;15.27;;;8.30;;
8450;SDS011;4262;50.980;13.892;2023-04-24T03:59:08;33.73;;;8.63;;
8450;SDS011;4262;50.980;13.892;2023-04-24T04:01:37;16.87;;;8.67;;
8450;SDS011;4262;50.980;13.892;2023-04-24T04:04:12;18.83;;;8.40;;
8450;SDS011;4262;50.980;13.892;2023-04-24T04:06:39;15.10;;;7.40;;
8450;SDS011;4262;50.980;13.892;2023-04-24T04:09:08;16.73;;;8.60;;
8450;SDS011;4262;50.980;13.892;2023-04-24T04:11:35;16.30;;;8.07;;
8450;SDS011;4262;50.980;13.892;2023-04-24T04:14:02;21.67;;;9.63;;
8450;SDS011;4262;50.980;13.892;2023-04-24T04:16:30;16.53;;;8.80;;
8450;SDS011;4262;50.980;13.892;2023-04-24T04:19:03;14.03;;;7.77;;
8450;SDS011;4262;50.980;13.892;2023-04-24T04:21:31;17.53;;;9.13;;
8450;SDS011;4262;50.980;13.892;2023-04-24T04:24:08;16.40;;;8.00;;
8450;SDS011;4262;50.980;13.892;2023-04-24T04:26:40;14.30;;;8.57;;
8450;SDS011;4262;50.980;13.892;2023-04-24T04:29:12;17.20;;;8.80;;
8450;SDS011;4262;50.980;13.892;2023-04-24T04:31:42;15.80;;;8.70;;
8450;SDS011;4262;50.980;13.892;2023-04-24T04:34:13;19.10;;;8.93;;
8450;SDS011;4262;50.980;13.892;2023-04-24T04:36:40;17.93;;;9.17;;
8450;SDS011;4262;50.980;13.892;2023-04-24T04:39:27;16.30;;;8.30;;
8450;SDS011;4262;50.980;13.892;2023-04-24T04:42:04;18.13;;;7.53;;
8450;SDS011;4262;50.980;13.892;2023-04-24T04:44:40;16.40;;;8.17;;
8450;SDS011;4262;50.980;13.892;2023-04-24T04:47:13;16.50;;;8.80;;
8450;SDS011;4262;50.980;13.892;2023-04-24T04:49:43;23.27;;;8.93;;
8450;SDS011;4262;50.980;13.892;2023-04-24T04:52:22;19.17;;;9.40;;
8450;SDS011;4262;50.980;13.892;2023-04-24T04:54:56;18.83;;;10.47;;
8450;SDS011;4262;50.980;13.892;2023-04-24T04:57:29;20.90;;;12.20;;
8450;SDS011;4262;50.980;13.892;2023-04-24T04:59:57;18.53;;;11.60;;
8450;SDS011;4262;50.980;13.892;2023-04-24T05:02:37;21.37;;;10.70;;
8450;SDS011;4262;50.980;13.892;2023-04-24T05:05:05;18.17;;;10.70;;
8450;SDS011;4262;50.980;13.892;2023-04-24T05:07:33;22.80;;;10.40;;
8450;SDS011;4262;50.980;13.892;2023-04-24T05:10:01;16.53;;;9.80;;
8450;SDS011;4262;50.980;13.892;2023-04-24T05:12:28;15.50;;;8.87;;
8450;SDS011;4262;50.980;13.892;2023-04-24T05:14:56;17.70;;;10.60;;
8450;SDS011;4262;50.980;13.892;2023-04-24T05:17:24;16.33;;;10.10;;
8450;SDS011;4262;50.980;13.892;2023-04-24T05:19:54;16.93;;;9.47;;
8450;SDS011;4262;50.980;13.892;2023-04-24T05:22:22;21.27;;;11.23;;
8450;SDS011;4262;50.980;13.892;2023-04-24T05:24:51;20.60;;;10.37;;
8450;SDS011;4262;50.980;13.892;2023-04-24T05:27:34;21.67;;;11.50;;
8450;SDS011;4262;50.980;13.892;2023-04-24T05:30:06;23.40;;;11.87;;
8450;SDS011;4262;50.980;13.892;2023-04-24T05:32:33;19.03;;;10.17;;
8450;SDS011;4262;50.980;13.892;2023-04-24T05:35:00;23.63;;;11.63;;
8450;SDS011;4262;50.980;13.892;2023-04-24T05:37:28;19.40;;;11.20;;
8450;SDS011;4262;50.980;13.892;2023-04-24T05:39:57;28.10;;;12.07;;
8450;SDS011;4262;50.980;13.892;2023-04-24T05:42:23;25.17;;;11.60;;
8450;SDS011;4262;50.980;13.892;2023-04-24T05:44:50;26.80;;;10.80;;
8450;SDS011;4262;50.980;13.892;2023-04-24T05:47:19;17.17;;;10.70;;
8450;SDS011;4262;50.980;13.892;2023-04-24T05:49:49;20.93;;;10.23;;
8450;SDS011;4262;50.980;13.892;2023-04-24T05:52:17;22.83;;;10.10;;
8450;SDS011;4262;50.980;13.892;2023-04-24T05:54:45;21.13;;;9.67;;
8450;SDS011;4262;50.980;13.892;2023-04-24T05:57:17;19.00;;;10.07;;
8450;SDS011;4262;50.980;13.892;2023-04-24T05:59:52;22.70;;;11.07;;
8450;SDS011;4262;50.980;13.892;2023-04-24T06:02:20;18.93;;;10.07;;
8450;SDS011;4262;50.980;13.892;2023-04-24T06:04:47;20.50;;;10.13;;
8450;SDS011;4262;50.980;13.892;2023-04-24T06:07:14;20.07;;;10.07;;
8450;SDS011;4262;50.980;13.892;2023-04-24T06:09:43;21.73;;;10.60;;
8450;SDS011;4262;50.980;13.892;2023-04-24T06:12:12;19.00;;;9.70;;
8450;SDS011;4262;50.980;13.892;2023-04-24T06:14:51;22.13;;;9.37;;
8450;SDS011;4262;50.980;13.892;2023-04-24T06:17:44;15.17;;;8.47;;
8450;SDS011;4262;50.980;13.892;2023-04-24T06:20:14;15.33;;;8.30;;
8450;SDS011;4262;50.980;13.892;2023-04-24T06:22:41;16.10;;;7.30;;
8450;SDS011;4262;50.980;13.892;2023-04-24T06:25:09;16.03;;;7.60;;
8450;SDS011;4262;50.980;13.892;2023-04-24T06:27:37;15.03;;;7.47;;
8450;SDS011;4262;50.980;13.892;2023-04-24T06:30:07;15.17;;;7.77;;
8450;SDS011;4262;50.980;13.892;2023-04-24T06:32:35;18.17;;;8.90;;
8450;SDS011;4262;50.980;13.892;2023-04-24T06:35:01;17.07;;;8.97;;
8450;SDS011;4262;50.980;13.892;2023-04-24T06:37:28;17.73;;;8.73;;
8450;SDS011;4262;50.980;13.892;2023-04-24T06:39:57;13.57;;;6.90;;
8450;SDS011;4262;50.980;13.892;2023-04-24T06:42:23;18.50;;;6.70;;
8450;SDS011;4262;50.980;13.892;2023-04-24T06:44:51;17.20;;;6.17;;
8450;SDS011;4262;50.980;13.892;2023-04-24T06:47:18;17.30;;;6.77;;
8450;SDS011;4262;50.980;13.892;2023-04-24T06:49:47;12.07;;;6.00;;
8450;SDS011;4262;50.980;13.892;2023-04-24T06:52:16;13.73;;;6.00;;
8450;SDS011;4262;50.980;13.892;2023-04-24T06:54:43;17.93;;;6.40;;
8450;SDS011;4262;50.980;13.892;2023-04-24T06:57:09;12.90;;;6.33;;
8450;SDS011;4262;50.980;13.892;2023-04-24T06:59:38;13.63;;;6.10;;
8450;SDS011;4262;50.980;13.892;2023-04-24T07:02:06;14.50;;;6.10;;
8450;SDS011;4262;50.980;13.892;2023-04-24T07:04:33;21.13;;;6.93;;
8450;SDS011;4262;50.980;13.892;2023-04-24T07:06:59;13.33;;;7.40;;
8450;SDS011;4262;50.980;13.892;2023-04-24T07:09:28;12.87;;;7.23;;
8450;SDS011;4262;50.980;13.892;2023-04-24T07:11:54;10.73;;;5.80;;
8450;SDS011;4262;50.980;13.892;2023-04-24T07:14:22;12.83;;;4.53;;
8450;SDS011;4262;50.980;13.892;2023-04-24T07:16:49;9.40;;;4.10;;
8450;SDS011;4262;50.980;13.892;2023-04-24T07:19:18;15.40;;;4.70;;
8450;SDS011;4262;50.980;13.892;2023-04-24T07:21:45;9.03;;;3.13;;
8450;SDS011;4262;50.980;13.892;2023-04-24T07:24:12;12.93;;;5.00;;
8450;SDS011;4262;50.980;13.892;2023-04-24T07:26:39;20.90;;;5.87;;
8450;SDS011;4262;50.980;13.892;2023-04-24T07:29:07;11.60;;;4.80;;
8450;SDS011;4262;50.980;13.892;2023-04-24T07:31:34;14.37;;;4.40;;
8450;SDS011;4262;50.980;13.892;2023-04-24T07:34:01;9.50;;;3.00;;
8450;SDS011;4262;50.980;13.892;2023-04-24T07:36:29;7.87;;;2.30;;
8450;SDS011;4262;50.980;13.892;2023-04-24T07:38:57;7.63;;;2.17;;
8450;SDS011;4262;50.980;13.892;2023-04-24T07:41:25;7.40;;;1.60;;
8450;SDS011;4262;50.980;13.892;2023-04-24T07:43:53;8.30;;;2.00;;
8450;SDS011;4262;50.980;13.892;2023-04-24T07:46:20;6.03;;;1.20;;
8450;SDS011;4262;50.980;13.892;2023-04-24T07:48:48;7.23;;;1.37;;
8450;SDS011;4262;50.980;13.892;2023-04-24T07:51:17;6.63;;;1.50;;
8450;SDS011;4262;50.980;13.892;2023-04-24T07:53:45;8.73;;;1.37;;
8450;SDS011;4262;50.980;13.892;2023-04-24T07:56:12;8.83;;;1.50;;
8450;SDS011;4262;50.980;13.892;2023-04-24T07:58:39;6.13;;;1.23;;
8450;SDS011;4262;50.980;13.892;2023-04-24T08:01:06;7.80;;;1.40;;
8450;SDS011;4262;50.980;13.892;2023-04-24T08:03:33;8.83;;;1.70;;
8450;SDS011;4262;50.980;13.892;2023-04-24T08:06:00;7.60;;;1.30;;
8450;SDS011;4262;50.980;13.892;2023-04-24T08:08:27;6.90;;;1.50;;
8450;SDS011;4262;50.980;13.892;2023-04-24T08:10:56;7.33;;;1.90;;
8450;SDS011;4262;50.980;13.892;2023-04-24T08:13:23;7.20;;;1.10;;
8450;SDS011;4262;50.980;13.892;2023-04-24T08:15:50;10.70;;;1.50;;
8450;SDS011;4262;50.980;13.892;2023-04-24T08:18:17;8.70;;;1.30;;
8450;SDS011;4262;50.980;13.892;2023-04-24T08:20:45;6.40;;;1.30;;
8450;SDS011;4262;50.980;13.892;2023-04-24T08:23:12;7.67;;;1.90;;
8450;SDS011;4262;50.980;13.892;2023-04-24T08:25:39;12.03;;;1.43;;
8450;SDS011;4262;50.980;13.892;2023-04-24T08:28:08;9.20;;;1.47;;
8450;SDS011;4262;50.980;13.892;2023-04-24T08:30:35;7.80;;;1.47;;
8450;SDS011;4262;50.980;13.892;2023-04-24T08:33:03;7.03;;;1.70;;
8450;SDS011;4262;50.980;13.892;2023-04-24T08:35:30;9.43;;;1.17;;
8450;SDS011;4262;50.980;13.892;2023-04-24T08:37:57;6.63;;;1.37;;
8450;SDS011;4262;50.980;13.892;2023-04-24T08:40:27;7.27;;;1.50;;
8450;SDS011;4262;50.980;13.892;2023-04-24T08:42:55;8.33;;;1.53;;
8450;SDS011;4262;50.980;13.892;2023-04-24T08:45:24;6.50;;;1.33;;
8450;SDS011;4262;50.980;13.892;2023-04-24T08:47:51;6.90;;;1.07;;
8450;SDS011;4262;50.980;13.892;2023-04-24T08:50:21;6.70;;;1.27;;
8450;SDS011;4262;50.980;13.892;2023-04-24T08:52:49;8.10;;;1.47;;
8450;SDS011;4262;50.980;13.892;2023-04-24T08:55:18;11.37;;;1.40;;
8450;SDS011;4262;50.980;13.892;2023-04-24T08:57:48;7.20;;;1.80;;
8450;SDS011;4262;50.980;13.892;2023-04-24T09:00:18;11.60;;;1.00;;
8450;SDS011;4262;50.980;13.892;2023-04-24T09:02:48;7.13;;;1.40;;
8450;SDS011;4262;50.980;13.892;2023-04-24T09:05:16;8.27;;;1.43;;
8450;SDS011;4262;50.980;13.892;2023-04-24T09:07:44;6.40;;;1.37;;
8450;SDS011;4262;50.980;13.892;2023-04-24T09:10:16;7.07;;;1.27;;
8450;SDS011;4262;50.980;13.892;2023-04-24T09:12:43;7.40;;;1.30;;
8450;SDS011;4262;50.980;13.892;2023-04-24T09:15:10;5.77;;;1.13;;
8450;SDS011;4262;50.980;13.892;2023-04-24T09:17:37;6.30;;;1.27;;
8450;SDS011;4262;50.980;13.892;2023-04-24T09:20:08;8.60;;;1.90;;
8450;SDS011;4262;50.980;13.892;2023-04-24T09:22:36;9.00;;;1.80;;
8450;SDS011;4262;50.980;13.892;2023-04-24T09:25:04;10.23;;;2.47;;
8450;SDS011;4262;50.980;13.892;2023-04-24T09:27:32;8.33;;;1.70;;
8450;SDS011;4262;50.980;13.892;2023-04-24T09:29:59;7.33;;;1.73;;
8450;SDS011;4262;50.980;13.892;2023-04-24T09:32:27;6.77;;;1.50;;
8450;SDS011;4262;50.980;13.892;2023-04-24T09:35:05;7.60;;;2.23;;
8450;SDS011;4262;50.980;13.892;2023-04-24T09:37:36;7.43;;;1.80;;
8450;SDS011;4262;50.980;13.892;2023-04-24T09:40:08;8.60;;;1.53;;
8450;SDS011;4262;50.980;13.892;2023-04-24T09:42:37;8.43;;;1.60;;
8450;SDS011;4262;50.980;13.892;2023-04-24T09:45:04;8.60;;;1.97;;
8450;SDS011;4262;50.980;13.892;2023-04-24T09:47:35;6.90;;;1.83;;
8450;SDS011;4262;50.980;13.892;2023-04-24T09:50:14;8.70;;;2.00;;
8450;SDS011;4262;50.980;13.892;2023-04-24T09:52:44;12.90;;;2.20;;
8450;SDS011;4262;50.980;13.892;2023-04-24T09:55:13;6.50;;;1.50;;
8450;SDS011;4262;50.980;13.892;2023-04-24T09:57:54;9.20;;;2.47;;
8450;SDS011;4262;50.980;13.892;2023-04-24T10:00:23;13.20;;;3.63;;
8450;SDS011;4262;50.980;13.892;2023-04-24T10:02:55;11.33;;;4.40;;
8450;SDS011;4262;50.980;13.892;2023-04-24T10:05:23;9.77;;;2.30;;
8450;SDS011;4262;50.980;13.892;2023-04-24T10:07:54;10.90;;;3.83;;
8450;SDS011;4262;50.980;13.892;2023-04-24T10:10:24;11.80;;;3.90;;
8450;SDS011;4262;50.980;13.892;2023-04-24T10:12:52;13.43;;;5.47;;
8450;SDS011;4262;50.980;13.892;2023-04-24T10:15:19;10.33;;;2.80;;
8450;SDS011;4262;50.980;13.892;2023-04-24T10:17:47;7.07;;;1.50;;
8450;SDS011;4262;50.980;13.892;2023-04-24T10:20:19;6.03;;;1.20;;
8450;SDS011;4262;50.980;13.892;2023-04-24T10:22:48;9.70;;;1.37;;
8450;SDS011;4262;50.980;13.892;2023-04-24T10:25:19;14.23;;;1.70;;
8450;SDS011;4262;50.980;13.892;2023-04-24T10:27:47;5.70;;;1.10;;
8450;SDS011;4262;50.980;13.892;2023-04-24T10:30:16;7.60;;;1.10;;
8450;SDS011;4262;50.980;13.892;2023-04-24T10:32:44;7.10;;;1.40;;
8450;SDS011;4262;50.980;13.892;2023-04-24T10:35:11;8.53;;;1.60;;
8450;SDS011;4262;50.980;13.892;2023-04-24T10:37:42;6.23;;;1.27;;
8450;SDS011;4262;50.980;13.892;2023-04-24T10:40:16;6.90;;;1.77;;
8450;SDS011;4262;50.980;13.892;2023-04-24T10:42:48;7.90;;;2.80;;
8450;SDS011;4262;50.980;13.892;2023-04-24T10:45:19;11.80;;;3.30;;
8450;SDS011;4262;50.980;13.892;2023-04-24T10:47:51;7.90;;;2.70;;
8450;SDS011;4262;50.980;13.892;2023-04-24T10:50:22;8.50;;;2.97;;
8450;SDS011;4262;50.980;13.892;2023-04-24T10:52:50;7.03;;;1.20;;
8450;SDS011;4262;50.980;13.892;2023-04-24T10:58:08;7.60;;;1.17;;
8450;SDS011;4262;50.980;13.892;2023-04-24T11:00:37;5.80;;;1.00;;
8450;SDS011;4262;50.980;13.892;2023-04-24T11:03:05;7.77;;;1.30;;
8450;SDS011;4262;50.980;13.892;2023-04-24T11:05:52;6.00;;;1.17;;
8450;SDS011;4262;50.980;13.892;2023-04-24T11:08:22;5.70;;;1.03;;
8450;SDS011;4262;50.980;13.892;2023-04-24T11:11:00;6.80;;;1.27;;
8450;SDS011;4262;50.980;13.892;2023-04-24T11:16:32;9.57;;;1.20;;
8450;SDS011;4262;50.980;13.892;2023-04-24T11:19:01;6.50;;;1.27;;
8450;SDS011;4262;50.980;13.892;2023-04-24T11:21:31;7.97;;;1.23;;
8450;SDS011;4262;50.980;13.892;2023-04-24T11:24:21;6.60;;;1.40;;
8450;SDS011;4262;50.980;13.892;2023-04-24T11:26:53;5.67;;;1.03;;
8450;SDS011;4262;50.980;13.892;2023-04-24T11:29:21;7.93;;;1.33;;
8450;SDS011;4262;50.980;13.892;2023-04-24T11:31:50;8.20;;;1.27;;
8450;SDS011;4262;50.980;13.892;2023-04-24T11:34:47;7.67;;;1.17;;
8450;SDS011;4262;50.980;13.892;2023-04-24T11:37:15;6.87;;;1.40;;
8450;SDS011;4262;50.980;13.892;2023-04-24T11:39:42;5.90;;;1.27;;
8450;SDS011;4262;50.980;13.892;2023-04-24T11:42:10;7.53;;;1.50;;
8450;SDS011;4262;50.980;13.892;2023-04-24T11:44:42;8.07;;;1.50;;
8450;SDS011;4262;50.980;13.892;2023-04-24T11:47:09;7.80;;;1.57;;
8450;SDS011;4262;50.980;13.892;2023-04-24T11:49:36;6.97;;;1.63;;
8450;SDS011;4262;50.980;13.892;2023-04-24T11:52:04;6.90;;;1.50;;
8450;SDS011;4262;50.980;13.892;2023-04-24T11:54:32;9.67;;;2.40;;
8450;SDS011;4262;50.980;13.892;2023-04-24T11:56:59;6.73;;;1.20;;
8450;SDS011;4262;50.980;13.892;2023-04-24T11:59:34;6.47;;;1.20;;
8450;SDS011;4262;50.980;13.892;2023-04-24T12:02:04;6.97;;;1.73;;
8450;SDS011;4262;50.980;13.892;2023-04-24T12:04:41;6.27;;;1.20;;
8450;SDS011;4262;50.980;13.892;2023-04-24T12:07:07;7.10;;;1.40;;
8450;SDS011;4262;50.980;13.892;2023-04-24T12:09:41;6.10;;;1.20;;
8450;SDS011;4262;50.980;13.892;2023-04-24T12:12:10;6.20;;;1.43;;
8450;SDS011;4262;50.980;13.892;2023-04-24T12:14:44;10.70;;;1.83;;
8450;SDS011;4262;50.980;13.892;2023-04-24T12:17:15;6.50;;;2.30;;
8450;SDS011;4262;50.980;13.892;2023-04-24T12:19:45;9.00;;;1.57;;
8450;SDS011;4262;50.980;13.892;2023-04-24T12:22:13;7.57;;;1.30;;
8450;SDS011;4262;50.980;13.892;2023-04-24T12:24:56;7.60;;;1.30;;
8450;SDS011;4262;50.980;13.892;2023-04-24T12:27:24;7.50;;;1.50;;
8450;SDS011;4262;50.980;13.892;2023-04-24T12:29:51;6.73;;;1.60;;
8450;SDS011;4262;50.980;13.892;2023-04-24T12:32:20;5.63;;;1.30;;
8450;SDS011;4262;50.980;13.892;2023-04-24T12:34:47;6.13;;;1.50;;
8450;SDS011;4262;50.980;13.892;2023-04-24T12:37:15;6.17;;;1.60;;
8450;SDS011;4262;50.980;13.892;2023-04-24T12:39:44;11.30;;;1.70;;
8450;SDS011;4262;50.980;13.892;2023-04-24T12:42:25;6.90;;;1.40;;
8450;SDS011;4262;50.980;13.892;2023-04-24T12:44:55;8.03;;;1.33;;
8450;SDS011;4262;50.980;13.892;2023-04-24T12:47:24;5.77;;;1.30;;
8450;SDS011;4262;50.980;13.892;2023-04-24T12:49:51;6.00;;;1.20;;
8450;SDS011;4262;50.980;13.892;2023-04-24T12:52:18;7.33;;;1.60;;
8450;SDS011;4262;50.980;13.892;2023-04-24T12:54:45;6.53;;;1.50;;
8450;SDS011;4262;50.980;13.892;2023-04-24T12:57:12;6.13;;;1.27;;
8450;SDS011;4262;50.980;13.892;2023-04-24T12:59:39;6.57;;;1.67;;
8450;SDS011;4262;50.980;13.892;2023-04-24T13:02:06;7.30;;;1.80;;
8450;SDS011;4262;50.980;13.892;2023-04-24T13:04:35;6.13;;;1.30;;
8450;SDS011;4262;50.980;13.892;2023-04-24T13:07:02;7.07;;;1.50;;
8450;SDS011;4262;50.980;13.892;2023-04-24T13:09:29;6.10;;;1.70;;
8450;SDS011;4262;50.980;13.892;2023-04-24T13:11:58;8.50;;;1.60;;
8450;SDS011;4262;50.980;13.892;2023-04-24T13:14:26;6.70;;;1.60;;
8450;SDS011;4262;50.980;13.892;2023-04-24T13:16:52;8.10;;;1.80;;
8450;SDS011;4262;50.980;13.892;2023-04-24T13:19:19;6.33;;;1.37;;
8450;SDS011;4262;50.980;13.892;2023-04-24T13:21:47;5.60;;;1.17;;
8450;SDS011;4262;50.980;13.892;2023-04-24T13:24:14;6.77;;;1.30;;
8450;SDS011;4262;50.980;13.892;2023-04-24T13:26:41;6.30;;;1.60;;
8450;SDS011;4262;50.980;13.892;2023-04-24T13:29:07;6.23;;;1.63;;
8450;SDS011;4262;50.980;13.892;2023-04-24T13:31:36;7.00;;;1.70;;
8450;SDS011;4262;50.980;13.892;2023-04-24T13:34:03;7.20;;;1.47;;
8450;SDS011;4262;50.980;13.892;2023-04-24T13:36:30;5.93;;;1.67;;
8450;SDS011;4262;50.980;13.892;2023-04-24T13:38:58;10.17;;;1.47;;
8450;SDS011;4262;50.980;13.892;2023-04-24T13:41:26;6.40;;;1.40;;
8450;SDS011;4262;50.980;13.892;2023-04-24T13:43:53;6.93;;;1.70;;
8450;SDS011;4262;50.980;13.892;2023-04-24T13:46:20;7.03;;;1.57;;
8450;SDS011;4262;50.980;13.892;2023-04-24T13:48:47;6.23;;;1.50;;
8450;SDS011;4262;50.980;13.892;2023-04-24T13:51:13;7.07;;;1.80;;
8450;SDS011;4262;50.980;13.892;2023-04-24T13:53:40;10.03;;;1.43;;
8450;SDS011;4262;50.980;13.892;2023-04-24T13:56:08;5.93;;;1.47;;
8450;SDS011;4262;50.980;13.892;2023-04-24T13:58:35;6.30;;;1.60;;
8450;SDS011;4262;50.980;13.892;2023-04-24T14:01:04;6.70;;;1.50;;
8450;SDS011;4262;50.980;13.892;2023-04-24T14:03:32;7.27;;;1.63;;
8450;SDS011;4262;50.980;13.892;2023-04-24T14:05:59;8.50;;;1.47;;
8450;SDS011;4262;50.980;13.892;2023-04-24T14:08:26;7.43;;;1.50;;
8450;SDS011;4262;50.980;13.892;2023-04-24T14:10:53;9.33;;;2.37;;
8450;SDS011;4262;50.980;13.892;2023-04-24T14:13:21;7.60;;;1.43;;
8450;SDS011;4262;50.980;13.892;2023-04-24T14:15:48;6.67;;;1.80;;
8450;SDS011;4262;50.980;13.892;2023-04-24T14:18:15;8.30;;;1.70;;
8450;SDS011;4262;50.980;13.892;2023-04-24T14:20:42;8.80;;;1.70;;
8450;SDS011;4262;50.980;13.892;2023-04-24T14:23:09;7.00;;;1.63;;
8450;SDS011;4262;50.980;13.892;2023-04-24T14:25:36;7.27;;;1.60;;
8450;SDS011;4262;50.980;13.892;2023-04-24T14:28:02;7.90;;;1.80;;
8450;SDS011;4262;50.980;13.892;2023-04-24T14:30:31;5.90;;;1.40;;
8450;SDS011;4262;50.980;13.892;2023-04-24T14:32:57;6.07;;;1.57;;
8450;SDS011;4262;50.980;13.892;2023-04-24T14:35:24;5.90;;;1.50;;
8450;SDS011;4262;50.980;13.892;2023-04-24T14:37:51;8.80;;;1.80;;
8450;SDS011;4262;50.980;13.892;2023-04-24T14:40:18;6.13;;;1.63;;
8450;SDS011;4262;50.980;13.892;2023-04-24T14:42:45;10.23;;;1.83;;
8450;SDS011;4262;50.980;13.892;2023-04-24T14:45:12;6.90;;;1.70;;
8450;SDS011;4262;50.980;13.892;2023-04-24T14:47:40;7.07;;;1.83;;
8450;SDS011;4262;50.980;13.892;2023-04-24T14:50:07;6.80;;;1.90;;
8450;SDS011;4262;50.980;13.892;2023-04-24T14:52:34;7.27;;;1.70;;
8450;SDS011;4262;50.980;13.892;2023-04-24T14:55:01;6.90;;;1.73;;
8450;SDS011;4262;50.980;13.892;2023-04-24T14:57:28;7.87;;;1.63;;
8450;SDS011;4262;50.980;13.892;2023-04-24T14:59:55;5.70;;;1.53;;
8450;SDS011;4262;50.980;13.892;2023-04-24T15:02:23;7.10;;;1.77;;
8450;SDS011;4262;50.980;13.892;2023-04-24T15:04:51;7.00;;;1.80;;
8450;SDS011;4262;50.980;13.892;2023-04-24T15:07:18;6.80;;;1.80;;
8450;SDS011;4262;50.980;13.892;2023-04-24T15:09:45;6.70;;;1.87;;
8450;SDS011;4262;50.980;13.892;2023-04-24T15:12:14;6.63;;;2.03;;
8450;SDS011;4262;50.980;13.892;2023-04-24T15:14:41;7.00;;;1.70;;
8450;SDS011;4262;50.980;13.892;2023-04-24T15:17:08;6.70;;;1.90;;
8450;SDS011;4262;50.980;13.892;2023-04-24T15:19:36;6.50;;;2.00;;
8450;SDS011;4262;50.980;13.892;2023-04-24T15:22:06;9.00;;;2.20;;
8450;SDS011;4262;50.980;13.892;2023-04-24T15:24:32;7.70;;;2.00;;
8450;SDS011;4262;50.980;13.892;2023-04-24T15:26:59;8.03;;;1.90;;
8450;SDS011;4262;50.980;13.892;2023-04-24T15:29:26;7.40;;;2.20;;
8450;SDS011;4262;50.980;13.892;2023-04-24T15:31:55;7.33;;;1.73;;
8450;SDS011;4262;50.980;13.892;2023-04-24T15:34:22;7.67;;;2.10;;
8450;SDS011;4262;50.980;13.892;2023-04-24T15:36:49;7.00;;;2.20;;
8450;SDS011;4262;50.980;13.892;2023-04-24T15:39:16;8.80;;;2.67;;
8450;SDS011;4262;50.980;13.892;2023-04-24T15:41:45;8.20;;;2.00;;
8450;SDS011;4262;50.980;13.892;2023-04-24T15:44:12;7.97;;;2.17;;
8450;SDS011;4262;50.980;13.892;2023-04-24T15:46:38;8.63;;;1.80;;
8450;SDS011;4262;50.980;13.892;2023-04-24T15:49:05;6.10;;;1.70;;
8450;SDS011;4262;50.980;13.892;2023-04-24T15:51:32;9.73;;;1.93;;
8450;SDS011;4262;50.980;13.892;2023-04-24T15:53:59;6.07;;;1.77;;
8450;SDS011;4262;50.980;13.892;2023-04-24T15:56:27;10.70;;;2.20;;
8450;SDS011;4262;50.980;13.892;2023-04-24T15:58:54;6.63;;;1.80;;
8450;SDS011;4262;50.980;13.892;2023-04-24T16:01:21;13.60;;;2.43;;
8450;SDS011;4262;50.980;13.892;2023-04-24T16:03:48;7.23;;;1.97;;
8450;SDS011;4262;50.980;13.892;2023-04-24T16:06:14;8.20;;;2.00;;
8450;SDS011;4262;50.980;13.892;2023-04-24T16:08:41;9.57;;;2.53;;
8450;SDS011;4262;50.980;13.892;2023-04-24T16:11:07;6.70;;;2.03;;
8450;SDS011;4262;50.980;13.892;2023-04-24T16:13:36;6.87;;;2.40;;
8450;SDS011;4262;50.980;13.892;2023-04-24T16:16:03;7.17;;;2.37;;
8450;SDS011;4262;50.980;13.892;2023-04-24T16:18:31;7.20;;;2.47;;
8450;SDS011;4262;50.980;13.892;2023-04-24T16:20:58;6.40;;;2.10;;
8450;SDS011;4262;50.980;13.892;2023-04-24T16:23:25;11.40;;;2.60;;
8450;SDS011;4262;50.980;13.892;2023-04-24T16:25:52;9.60;;;2.57;;
8450;SDS011;4262;50.980;13.892;2023-04-24T16:28:19;7.00;;;2.90;;
8450;SDS011;4262;50.980;13.892;2023-04-24T16:30:48;7.90;;;3.40;;
8450;SDS011;4262;50.980;13.892;2023-04-24T16:33:14;9.67;;;2.80;;
8450;SDS011;4262;50.980;13.892;2023-04-24T16:35:41;8.80;;;2.77;;
8450;SDS011;4262;50.980;13.892;2023-04-24T16:38:09;8.07;;;2.63;;
8450;SDS011;4262;50.980;13.892;2023-04-24T16:40:36;7.13;;;2.47;;
8450;SDS011;4262;50.980;13.892;2023-04-24T16:43:03;9.27;;;2.70;;
8450;SDS011;4262;50.980;13.892;2023-04-24T16:45:30;10.43;;;2.50;;
8450;SDS011;4262;50.980;13.892;2023-04-24T16:47:58;11.37;;;2.90;;
8450;SDS011;4262;50.980;13.892;2023-04-24T16:50:25;6.60;;;2.13;;
8450;SDS011;4262;50.980;13.892;2023-04-24T16:52:52;6.73;;;2.37;;
8450;SDS011;4262;50.980;13.892;2023-04-24T16:55:19;6.37;;;2.00;;
8450;SDS011;4262;50.980;13.892;2023-04-24T16:57:46;9.33;;;2.57;;
8450;SDS011;4262;50.980;13.892;2023-04-24T17:00:13;6.53;;;1.80;;
8450;SDS011;4262;50.980;13.892;2023-04-24T17:02:40;10.13;;;2.20;;
8450;SDS011;4262;50.980;13.892;2023-04-24T17:05:10;7.07;;;2.20;;
8450;SDS011;4262;50.980;13.892;2023-04-24T17:07:37;11.43;;;2.20;;
8450;SDS011;4262;50.980;13.892;2023-04-24T17:10:04;7.07;;;2.03;;
8450;SDS011;4262;50.980;13.892;2023-04-24T17:12:34;6.80;;;2.37;;
8450;SDS011;4262;50.980;13.892;2023-04-24T17:15:01;7.30;;;2.10;;
8450;SDS011;4262;50.980;13.892;2023-04-24T17:17:28;6.40;;;1.90;;
8450;SDS011;4262;50.980;13.892;2023-04-24T17:19:55;6.87;;;2.50;;
8450;SDS011;4262;50.980;13.892;2023-04-24T17:22:23;11.37;;;2.23;;
8450;SDS011;4262;50.980;13.892;2023-04-24T17:24:50;6.97;;;2.57;;
8450;SDS011;4262;50.980;13.892;2023-04-24T17:27:17;20.27;;;3.33;;
8450;SDS011;4262;50.980;13.892;2023-04-24T17:29:43;7.63;;;2.20;;
8450;SDS011;4262;50.980;13.892;2023-04-24T17:32:10;6.33;;;2.00;;
8450;SDS011;4262;50.980;13.892;2023-04-24T17:34:36;5.97;;;1.80;;
8450;SDS011;4262;50.980;13.892;2023-04-24T17:37:03;6.20;;;1.70;;
8450;SDS011;4262;50.980;13.892;2023-04-24T17:39:31;8.80;;;2.03;;
8450;SDS011;4262;50.980;13.892;2023-04-24T17:41:58;6.20;;;1.70;;
8450;SDS011;4262;50.980;13.892;2023-04-24T17:44:26;5.90;;;1.83;;
8450;SDS011;4262;50.980;13.892;2023-04-24T17:46:52;6.70;;;2.00;;
8450;SDS011;4262;50.980;13.892;2023-04-24T17:49:19;7.20;;;2.00;;
8450;SDS011;4262;50.980;13.892;2023-04-24T17:51:46;5.60;;;1.53;;
8450;SDS011;4262;50.980;13.892;2023-04-24T17:54:12;5.93;;;1.80;;
8450;SDS011;4262;50.980;13.892;2023-04-24T17:56:41;6.83;;;2.17;;
8450;SDS011;4262;50.980;13.892;2023-04-24T17:59:07;6.70;;;1.90;;
8450;SDS011;4262;50.980;13.892;2023-04-24T18:01:34;6.20;;;1.93;;
8450;SDS011;4262;50.980;13.892;2023-04-24T18:04:01;10.13;;;4.30;;
8450;SDS011;4262;50.980;13.892;2023-04-24T18:06:28;9.20;;;4.07;;
8450;SDS011;4262;50.980;13.892;2023-04-24T18:08:54;6.90;;;2.17;;
8450;SDS011;4262;50.980;13.892;2023-04-24T18:11:21;6.23;;;2.20;;
8450;SDS011;4262;50.980;13.892;2023-04-24T18:13:49;8.27;;;2.97;;
8450;SDS011;4262;50.980;13.892;2023-04-24T18:16:16;6.40;;;2.40;;
8450;SDS011;4262;50.980;13.892;2023-04-24T18:18:43;6.27;;;2.03;;
8450;SDS011;4262;50.980;13.892;2023-04-24T18:21:09;7.13;;;2.83;;
8450;SDS011;4262;50.980;13.892;2023-04-24T18:23:36;6.30;;;2.17;;
8450;SDS011;4262;50.980;13.892;2023-04-24T18:26:03;6.03;;;1.80;;
8450;SDS011;4262;50.980;13.892;2023-04-24T18:28:29;6.17;;;1.70;;
8450;SDS011;4262;50.980;13.892;2023-04-24T18:31:00;9.63;;;1.63;;
8450;SDS011;4262;50.980;13.892;2023-04-24T18:33:27;5.87;;;1.80;;
8450;SDS011;4262;50.980;13.892;2023-04-24T18:35:53;7.67;;;2.83;;
8450;SDS011;4262;50.980;13.892;2023-04-24T18:38:22;7.97;;;2.57;;
8450;SDS011;4262;50.980;13.892;2023-04-24T18:40:50;6.70;;;1.57;;